If you wish to contribute or participate in the discussions about articles you are invited to join SKYbrary as a registered user

 Actions

Brasília International Airport/President Juscelino Kubitschek

From SKYbrary Wiki

SBBR
Airport
ICAO: SBBR – IATA: BSB
Summary
Name Brasília International Airport/President Juscelino Kubitschek
Region South America and Caribbean
Territory Brazil BR.gif
Location Lago Sul, Federal District
Serving Brasilia
Elevation 1,060.399 m
3,479 ft
3,479 ft1,060.399 m
Coordinates 15° 51' 46.01" S, 47° 54' 46.01" W
Runways
Designator Length Width Surface ROPS
11L/29R 3200 m10,498.688 ft
45 m147.638 ft
ASP yes/yes
11R/29L 3300 m10,826.772 ft
45 m147.638 ft
ASP yes/yes


METAR
Observation SBBR 181900Z 17006G17KT 9999 VCSH SCT040 FEW045TCU BKN100 25/20 Q1016 RETS
Station Brasilia Aeroporto
Date/Time 18 April 2019 19:00:00
Wind direction 170°
Wind speed 06 kts
Lowest cloud amount scattered clouds
Temperature 25°C
Dew point 20°C
Humidity 73%
QNH 1016 hPa
Weather condition in vicinity: showers

RE
Tag(s) Hot and High Operations

Brasília's International airport.

Climatology

Tropical Savanna climate (Köppen climate classification Aw)

Maps

Terrain

Loading map...

Airport Layout

Loading map...


Accidents & Serious Incidents at or in vicinity of SBBR

None on SKYbrary